sensor_id;sensor_type;location;lat;lon;timestamp;pressure;altitude;pressure_sealevel;temperature;humidity
67517;BME280;68821;59.134;37.894;2023-06-04T00:00:54;99819.00;;;7.12;58.59
67517;BME280;68821;59.134;37.894;2023-06-04T00:03:20;99827.47;;;7.10;58.28
67517;BME280;68821;59.134;37.894;2023-06-04T00:05:46;99833.38;;;7.07;59.32
67517;BME280;68821;59.134;37.894;2023-06-04T00:08:13;99837.53;;;7.02;58.36
67517;BME280;68821;59.134;37.894;2023-06-04T00:10:39;99846.84;;;7.00;58.87
67517;BME280;68821;59.134;37.894;2023-06-04T00:13:06;99844.25;;;6.98;58.72
67517;BME280;68821;59.134;37.894;2023-06-04T00:15:32;99820.84;;;6.80;58.95
67517;BME280;68821;59.134;37.894;2023-06-04T00:17:58;99840.75;;;6.93;59.21
67517;BME280;68821;59.134;37.894;2023-06-04T00:20:24;99839.84;;;6.91;59.41
67517;BME280;68821;59.134;37.894;2023-06-04T00:22:51;99836.34;;;6.88;59.10
67517;BME280;68821;59.134;37.894;2023-06-04T00:25:17;99847.34;;;6.83;60.07
67517;BME280;68821;59.134;37.894;2023-06-04T00:27:43;99849.69;;;6.76;60.09
67517;BME280;68821;59.134;37.894;2023-06-04T00:30:09;99855.66;;;6.76;59.63
67517;BME280;68821;59.134;37.894;2023-06-04T00:32:36;99850.50;;;6.73;60.08
67517;BME280;68821;59.134;37.894;2023-06-04T00:35:02;99847.78;;;6.67;60.05
67517;BME280;68821;59.134;37.894;2023-06-04T00:37:29;99863.28;;;6.73;60.23
67517;BME280;68821;59.134;37.894;2023-06-04T00:39:55;99857.22;;;6.70;59.46
67517;BME280;68821;59.134;37.894;2023-06-04T00:42:22;99865.78;;;6.72;60.04
67517;BME280;68821;59.134;37.894;2023-06-04T00:44:48;99857.91;;;6.64;60.17
67517;BME280;68821;59.134;37.894;2023-06-04T00:47:15;99867.44;;;6.70;60.30
67517;BME280;68821;59.134;37.894;2023-06-04T00:49:41;99866.56;;;6.69;60.23
67517;BME280;68821;59.134;37.894;2023-06-04T00:52:09;99855.59;;;6.73;61.05
67517;BME280;68821;59.134;37.894;2023-06-04T00:54:35;99867.47;;;6.71;60.63
67517;BME280;68821;59.134;37.894;2023-06-04T00:57:04;99848.56;;;6.63;61.09
67517;BME280;68821;59.134;37.894;2023-06-04T00:59:31;99876.03;;;6.73;61.24
67517;BME280;68821;59.134;37.894;2023-06-04T01:02:14;99872.63;;;6.73;60.75
67517;BME280;68821;59.134;37.894;2023-06-04T01:04:50;99867.53;;;6.73;61.16
67517;BME280;68821;59.134;37.894;2023-06-04T01:07:19;99863.97;;;6.68;61.09
67517;BME280;68821;59.134;37.894;2023-06-04T01:09:47;99848.34;;;6.55;61.63
67517;BME280;68821;59.134;37.894;2023-06-04T01:12:13;99868.94;;;6.61;61.27
67517;BME280;68821;59.134;37.894;2023-06-04T01:14:40;99869.69;;;6.57;61.28
67517;BME280;68821;59.134;37.894;2023-06-04T01:17:15;99880.84;;;6.61;62.24
67517;BME280;68821;59.134;37.894;2023-06-04T01:25:14;99877.34;;;6.57;61.72
67517;BME280;68821;59.134;37.894;2023-06-04T01:27:48;99887.56;;;6.57;62.09
67517;BME280;68821;59.134;37.894;2023-06-04T01:30:16;99879.91;;;6.57;61.43
67517;BME280;68821;59.134;37.894;2023-06-04T01:32:42;99882.41;;;6.56;62.10
67517;BME280;68821;59.134;37.894;2023-06-04T01:35:11;99886.81;;;6.61;61.52
67517;BME280;68821;59.134;37.894;2023-06-04T01:37:37;99884.31;;;6.63;61.35
67517;BME280;68821;59.134;37.894;2023-06-04T01:40:03;99888.66;;;6.67;61.72
67517;BME280;68821;59.134;37.894;2023-06-04T01:42:30;99885.34;;;6.71;62.38
67517;BME280;68821;59.134;37.894;2023-06-04T01:44:57;99884.50;;;6.71;61.86
67517;BME280;68821;59.134;37.894;2023-06-04T01:47:22;99885.31;;;6.70;61.11
67517;BME280;68821;59.134;37.894;2023-06-04T01:49:48;99891.31;;;6.72;61.30
67517;BME280;68821;59.134;37.894;2023-06-04T01:52:15;99894.78;;;6.74;61.61
67517;BME280;68821;59.134;37.894;2023-06-04T01:54:42;99895.63;;;6.74;62.13
67517;BME280;68821;59.134;37.894;2023-06-04T01:57:08;99896.47;;;6.73;62.17
67517;BME280;68821;59.134;37.894;2023-06-04T01:59:37;99903.34;;;6.76;62.31
67517;BME280;68821;59.134;37.894;2023-06-04T02:02:04;99906.91;;;6.81;61.98
67517;BME280;68821;59.134;37.894;2023-06-04T02:04:30;99900.09;;;6.81;61.82
67517;BME280;68821;59.134;37.894;2023-06-04T02:06:57;99906.13;;;6.85;62.04
67517;BME280;68821;59.134;37.894;2023-06-04T02:09:25;99919.06;;;6.91;62.46
67517;BME280;68821;59.134;37.894;2023-06-04T02:11:52;99919.91;;;6.92;62.10
67517;BME280;68821;59.134;37.894;2023-06-04T02:14:18;99902.75;;;6.86;61.96
67517;BME280;68821;59.134;37.894;2023-06-04T02:16:44;99921.63;;;6.91;62.64
67517;BME280;68821;59.134;37.894;2023-06-04T02:19:10;99915.66;;;6.92;61.86
67517;BME280;68821;59.134;37.894;2023-06-04T02:21:38;99922.44;;;6.90;62.44
67517;BME280;68821;59.134;37.894;2023-06-04T02:24:05;99921.63;;;6.91;62.21
67517;BME280;68821;59.134;37.894;2023-06-04T02:26:34;99920.78;;;6.92;62.16
67517;BME280;68821;59.134;37.894;2023-06-04T02:29:00;99898.31;;;6.79;62.93
67517;BME280;68821;59.134;37.894;2023-06-04T02:31:27;99921.63;;;6.93;63.02
67517;BME280;68821;59.134;37.894;2023-06-04T02:33:53;99928.59;;;6.98;63.15
67517;BME280;68821;59.134;37.894;2023-06-04T02:36:19;99924.47;;;7.05;62.89
67517;BME280;68821;59.134;37.894;2023-06-04T02:38:45;99924.56;;;7.08;62.44
67517;BME280;68821;59.134;37.894;2023-06-04T02:41:12;99903.13;;;7.03;63.00
67517;BME280;68821;59.134;37.894;2023-06-04T02:43:41;99930.91;;;7.24;62.79
67517;BME280;68821;59.134;37.894;2023-06-04T02:46:07;99930.28;;;7.34;62.32
67517;BME280;68821;59.134;37.894;2023-06-04T02:48:34;99931.41;;;7.47;62.84
67517;BME280;68821;59.134;37.894;2023-06-04T02:51:00;99933.44;;;7.62;62.30
67517;BME280;68821;59.134;37.894;2023-06-04T02:53:26;99934.59;;;7.76;62.21
67517;BME280;68821;59.134;37.894;2023-06-04T02:55:52;99937.38;;;7.87;61.71
67517;BME280;68821;59.134;37.894;2023-06-04T02:58:19;99941.06;;;8.00;61.50
67517;BME280;68821;59.134;37.894;2023-06-04T03:00:47;99939.56;;;8.11;61.72
67517;BME280;68821;59.134;37.894;2023-06-04T03:03:13;99939.78;;;8.20;61.58
67517;BME280;68821;59.134;37.894;2023-06-04T03:05:40;99945.00;;;8.28;61.77
67517;BME280;68821;59.134;37.894;2023-06-04T03:08:09;99939.97;;;8.31;61.34
67517;BME280;68821;59.134;37.894;2023-06-04T03:10:35;99944.38;;;8.40;61.33
67517;BME280;68821;59.134;37.894;2023-06-04T03:13:02;99936.88;;;8.48;61.11
67517;BME280;68821;59.134;37.894;2023-06-04T03:15:28;99947.97;;;8.48;60.96
67517;BME280;68821;59.134;37.894;2023-06-04T03:17:54;99950.50;;;8.46;61.16
67517;BME280;68821;59.134;37.894;2023-06-04T03:20:21;99947.88;;;8.42;61.20
67517;BME280;68821;59.134;37.894;2023-06-04T03:22:51;99958.97;;;8.42;60.89
67517;BME280;68821;59.134;37.894;2023-06-04T03:25:17;99958.13;;;8.42;61.13
67517;BME280;68821;59.134;37.894;2023-06-04T03:27:43;99944.50;;;8.43;60.89
67517;BME280;68821;59.134;37.894;2023-06-04T03:30:10;99952.19;;;8.44;61.46
67517;BME280;68821;59.134;37.894;2023-06-04T03:32:36;99950.59;;;8.50;60.79
67517;BME280;68821;59.134;37.894;2023-06-04T03:35:03;99948.91;;;8.52;60.97
67517;BME280;68821;59.134;37.894;2023-06-04T03:37:29;99962.63;;;8.54;60.75
67517;BME280;68821;59.134;37.894;2023-06-04T03:39:56;99960.91;;;8.54;60.81
67517;BME280;68821;59.134;37.894;2023-06-04T03:42:22;99960.19;;;8.61;60.88
67517;BME280;68821;59.134;37.894;2023-06-04T03:44:48;99953.47;;;8.68;60.65
67517;BME280;68821;59.134;37.894;2023-06-04T03:47:14;99956.19;;;8.76;60.42
67517;BME280;68821;59.134;37.894;2023-06-04T03:49:40;99958.03;;;8.84;60.27
67517;BME280;68821;59.134;37.894;2023-06-04T03:52:06;99958.94;;;8.90;60.15
67517;BME280;68821;59.134;37.894;2023-06-04T03:54:33;99959.94;;;8.98;59.58
67517;BME280;68821;59.134;37.894;2023-06-04T03:56:59;99967.75;;;9.04;59.68
67517;BME280;68821;59.134;37.894;2023-06-04T03:59:26;99972.03;;;9.05;59.55
67517;BME280;68821;59.134;37.894;2023-06-04T04:01:52;99966.97;;;9.10;58.92
67517;BME280;68821;59.134;37.894;2023-06-04T04:04:18;99971.34;;;9.15;59.13
67517;BME280;68821;59.134;37.894;2023-06-04T04:06:44;99969.75;;;9.22;59.05
67517;BME280;68821;59.134;37.894;2023-06-04T04:09:11;99961.22;;;9.24;59.16
67517;BME280;68821;59.134;37.894;2023-06-04T04:11:37;99977.53;;;9.28;58.63
67517;BME280;68821;59.134;37.894;2023-06-04T04:14:03;99974.16;;;9.29;58.94
67517;BME280;68821;59.134;37.894;2023-06-04T04:16:29;99973.25;;;9.27;58.71
67517;BME280;68821;59.134;37.894;2023-06-04T04:18:55;99971.59;;;9.29;59.29
67517;BME280;68821;59.134;37.894;2023-06-04T04:21:22;99990.38;;;9.30;58.85
67517;BME280;68821;59.134;37.894;2023-06-04T04:23:49;99981.78;;;9.26;59.12
67517;BME280;68821;59.134;37.894;2023-06-04T04:26:16;99981.75;;;9.23;58.66
67517;BME280;68821;59.134;37.894;2023-06-04T04:28:43;99977.41;;;9.20;58.95
67517;BME280;68821;59.134;37.894;2023-06-04T04:31:09;99982.59;;;9.23;59.40
67517;BME280;68821;59.134;37.894;2023-06-04T04:33:36;99984.41;;;9.29;59.09
67517;BME280;68821;59.134;37.894;2023-06-04T04:36:06;99976.78;;;9.34;59.11
67517;BME280;68821;59.134;37.894;2023-06-04T04:38:38;99974.25;;;9.35;58.99
67517;BME280;68821;59.134;37.894;2023-06-04T04:41:04;99980.16;;;9.33;59.28
67517;BME280;68821;59.134;37.894;2023-06-04T04:43:32;99969.91;;;9.31;58.95
67517;BME280;68821;59.134;37.894;2023-06-04T04:45:58;99975.00;;;9.30;59.43
67517;BME280;68821;59.134;37.894;2023-06-04T04:48:25;99973.31;;;9.32;59.05
67517;BME280;68821;59.134;37.894;2023-06-04T04:50:54;99982.84;;;9.40;59.72
67517;BME280;68821;59.134;37.894;2023-06-04T04:53:20;99982.13;;;9.48;59.02
67517;BME280;68821;59.134;37.894;2023-06-04T04:55:47;99981.38;;;9.56;59.98
67517;BME280;68821;59.134;37.894;2023-06-04T04:58:14;99979.78;;;9.64;59.46
67517;BME280;68821;59.134;37.894;2023-06-04T05:00:40;99979.88;;;9.71;59.12
67517;BME280;68821;59.134;37.894;2023-06-04T05:03:07;99977.34;;;9.74;59.20
67517;BME280;68821;59.134;37.894;2023-06-04T05:05:33;99975.69;;;9.77;59.38
67517;BME280;68821;59.134;37.894;2023-06-04T05:07:59;99972.28;;;9.78;59.16
67517;BME280;68821;59.134;37.894;2023-06-04T05:10:25;99980.88;;;9.82;59.22
67517;BME280;68821;59.134;37.894;2023-06-04T05:12:56;99980.09;;;9.87;59.35
67517;BME280;68821;59.134;37.894;2023-06-04T05:15:22;99970.75;;;9.93;59.17
67517;BME280;68821;59.134;37.894;2023-06-04T05:17:48;99970.91;;;10.06;59.28
67517;BME280;68821;59.134;37.894;2023-06-04T05:20:14;99975.41;;;10.24;59.59
67517;BME280;68821;59.134;37.894;2023-06-04T05:22:41;99970.44;;;10.34;59.71
67517;BME280;68821;59.134;37.894;2023-06-04T05:25:09;99960.28;;;10.46;59.04
67517;BME280;68821;59.134;37.894;2023-06-04T05:27:35;99968.13;;;10.58;58.56
67517;BME280;68821;59.134;37.894;2023-06-04T05:30:02;99963.91;;;10.65;58.71
67517;BME280;68821;59.134;37.894;2023-06-04T05:32:29;99970.84;;;10.74;58.68
67517;BME280;68821;59.134;37.894;2023-06-04T05:34:57;99975.19;;;10.81;58.55
67517;BME280;68821;59.134;37.894;2023-06-04T05:37:23;99974.34;;;10.83;57.89
67517;BME280;68821;59.134;37.894;2023-06-04T05:39:50;99970.91;;;10.81;57.73
67517;BME280;68821;59.134;37.894;2023-06-04T05:42:16;99972.56;;;10.76;57.67
67517;BME280;68821;59.134;37.894;2023-06-04T05:44:41;99970.81;;;10.71;57.90
67517;BME280;68821;59.134;37.894;2023-06-04T05:47:07;99973.38;;;10.72;58.21
67517;BME280;68821;59.134;37.894;2023-06-04T05:49:34;99960.59;;;10.80;58.10
67517;BME280;68821;59.134;37.894;2023-06-04T05:52:00;99964.19;;;10.99;57.97
67517;BME280;68821;59.134;37.894;2023-06-04T05:54:28;99958.38;;;11.23;57.89
67517;BME280;68821;59.134;37.894;2023-06-04T05:56:54;99955.97;;;11.46;57.17
67517;BME280;68821;59.134;37.894;2023-06-04T05:59:20;99953.50;;;11.61;57.42
67517;BME280;68821;59.134;37.894;2023-06-04T06:01:46;99948.41;;;11.72;57.11
67517;BME280;68821;59.134;37.894;2023-06-04T06:04:14;99952.81;;;11.90;56.39
67517;BME280;68821;59.134;37.894;2023-06-04T06:06:42;99956.31;;;12.09;56.54
67517;BME280;68821;59.134;37.894;2023-06-04T06:09:10;99952.97;;;12.28;55.94
67517;BME280;68821;59.134;37.894;2023-06-04T06:11:36;99950.44;;;12.45;55.35
67517;BME280;68821;59.134;37.894;2023-06-04T06:14:02;99949.59;;;12.57;54.86
67517;BME280;68821;59.134;37.894;2023-06-04T06:16:29;99951.31;;;12.71;54.77
67517;BME280;68821;59.134;37.894;2023-06-04T06:18:55;99959.09;;;12.78;54.39
67517;BME280;68821;59.134;37.894;2023-06-04T06:21:22;99964.22;;;12.77;54.49
67517;BME280;68821;59.134;37.894;2023-06-04T06:23:48;99964.25;;;12.83;54.33
67517;BME280;68821;59.134;37.894;2023-06-04T06:26:14;99962.53;;;12.89;54.14
67517;BME280;68821;59.134;37.894;2023-06-04T06:28:42;99964.25;;;12.92;54.09
67517;BME280;68821;59.134;37.894;2023-06-04T06:31:08;99965.09;;;12.97;53.94
67517;BME280;68821;59.134;37.894;2023-06-04T06:33:34;99949.63;;;13.09;53.85
67517;BME280;68821;59.134;37.894;2023-06-04T06:36:00;99963.38;;;13.12;53.30
67517;BME280;68821;59.134;37.894;2023-06-04T06:38:27;99957.38;;;13.08;53.09
67517;BME280;68821;59.134;37.894;2023-06-04T06:40:53;99956.50;;;13.07;53.09
67517;BME280;68821;59.134;37.894;2023-06-04T06:43:19;99960.81;;;13.10;53.16
67517;BME280;68821;59.134;37.894;2023-06-04T06:45:45;99953.06;;;13.07;52.37
67517;BME280;68821;59.134;37.894;2023-06-04T06:48:12;99964.28;;;13.11;52.10
67517;BME280;68821;59.134;37.894;2023-06-04T06:50:38;99958.22;;;13.18;52.15
67517;BME280;68821;59.134;37.894;2023-06-04T06:53:04;99940.16;;;13.16;51.59
67517;BME280;68821;59.134;37.894;2023-06-04T06:55:30;99952.22;;;13.17;51.59
67517;BME280;68821;59.134;37.894;2023-06-04T06:57:56;99945.31;;;13.24;51.38
67517;BME280;68821;59.134;37.894;2023-06-04T07:00:23;99947.06;;;13.30;51.38
67517;BME280;68821;59.134;37.894;2023-06-04T07:02:49;99951.38;;;13.29;51.04
67517;BME280;68821;59.134;37.894;2023-06-04T07:05:15;99945.31;;;13.18;50.78
67517;BME280;68821;59.134;37.894;2023-06-04T07:07:43;99947.91;;;13.19;50.87
67517;BME280;68821;59.134;37.894;2023-06-04T07:10:09;99949.63;;;13.33;50.74
67517;BME280;68821;59.134;37.894;2023-06-04T07:12:36;99940.16;;;13.36;50.64
67517;BME280;68821;59.134;37.894;2023-06-04T07:15:02;99945.34;;;13.32;50.33
67517;BME280;68821;59.134;37.894;2023-06-04T07:17:29;99942.75;;;13.19;50.93
67517;BME280;68821;59.134;37.894;2023-06-04T07:19:55;99949.63;;;13.11;50.72
67517;BME280;68821;59.134;37.894;2023-06-04T07:22:21;99944.47;;;13.13;51.18
67517;BME280;68821;59.134;37.894;2023-06-04T07:24:47;99953.06;;;13.21;50.82
67517;BME280;68821;59.134;37.894;2023-06-04T07:27:14;99947.06;;;13.31;50.42
67517;BME280;68821;59.134;37.894;2023-06-04T07:29:43;99945.34;;;13.38;49.80
67517;BME280;68821;59.134;37.894;2023-06-04T07:32:11;99945.34;;;13.36;49.68
67517;BME280;68821;59.134;37.894;2023-06-04T07:34:40;99942.72;;;13.41;49.43
67517;BME280;68821;59.134;37.894;2023-06-04T07:37:06;99942.72;;;13.50;49.76
67517;BME280;68821;59.134;37.894;2023-06-04T07:39:33;99940.16;;;13.48;49.61
67517;BME280;68821;59.134;37.894;2023-06-04T07:41:59;99941.03;;;13.38;49.45
67517;BME280;68821;59.134;37.894;2023-06-04T07:44:26;99934.97;;;13.48;49.28
67517;BME280;68821;59.134;37.894;2023-06-04T07:46:52;99941.81;;;13.73;49.16
67517;BME280;68821;59.134;37.894;2023-06-04T07:49:18;99946.88;;;13.96;48.80
67517;BME280;68821;59.134;37.894;2023-06-04T07:51:46;99933.03;;;14.12;48.73
67517;BME280;68821;59.134;37.894;2023-06-04T07:54:12;99930.31;;;14.37;48.50
67517;BME280;68821;59.134;37.894;2023-06-04T07:56:40;99933.72;;;14.46;47.71
67517;BME280;68821;59.134;37.894;2023-06-04T07:59:06;99928.50;;;14.57;47.07
67517;BME280;68821;59.134;37.894;2023-06-04T08:01:32;99935.34;;;14.66;46.84
67517;BME280;68821;59.134;37.894;2023-06-04T08:03:58;99936.19;;;14.69;46.56
67517;BME280;68821;59.134;37.894;2023-06-04T08:06:25;99935.28;;;14.72;46.73
67517;BME280;68821;59.134;37.894;2023-06-04T08:08:52;99925.69;;;14.89;46.89
67517;BME280;68821;59.134;37.894;2023-06-04T08:11:18;99927.16;;;15.17;46.59
67517;BME280;68821;59.134;37.894;2023-06-04T08:13:44;99937.34;;;15.38;46.29
67517;BME280;68821;59.134;37.894;2023-06-04T08:16:10;99925.19;;;15.42;46.20
67517;BME280;68821;59.134;37.894;2023-06-04T08:18:40;99933.78;;;15.45;45.81
67517;BME280;68821;59.134;37.894;2023-06-04T08:21:10;99929.47;;;15.47;45.42
67517;BME280;68821;59.134;37.894;2023-06-04T08:23:37;99937.09;;;15.58;45.82
67517;BME280;68821;59.134;37.894;2023-06-04T08:26:03;99931.50;;;15.98;45.46
67517;BME280;68821;59.134;37.894;2023-06-04T08:28:29;99933.72;;;16.27;45.10
67517;BME280;68821;59.134;37.894;2023-06-04T08:30:55;99956.97;;;16.35;44.10
67517;BME280;68821;59.134;37.894;2023-06-04T08:33:21;99937.47;;;16.05;43.80
67517;BME280;68821;59.134;37.894;2023-06-04T08:35:47;99930.63;;;15.99;44.08
67517;BME280;68821;59.134;37.894;2023-06-04T08:38:13;99943.31;;;16.22;44.26
67517;BME280;68821;59.134;37.894;2023-06-04T08:40:39;99944.69;;;16.46;43.93
67517;BME280;68821;59.134;37.894;2023-06-04T08:43:04;99937.53;;;16.64;43.69
67517;BME280;68821;59.134;37.894;2023-06-04T08:45:33;99938.44;;;16.60;43.29
67517;BME280;68821;59.134;37.894;2023-06-04T08:48:02;99946.56;;;16.37;43.31
67517;BME280;68821;59.134;37.894;2023-06-04T08:50:29;99944.31;;;16.09;43.66
67517;BME280;68821;59.134;37.894;2023-06-04T08:52:57;99941.91;;;15.95;43.53
67517;BME280;68821;59.134;37.894;2023-06-04T08:55:23;99940.38;;;15.79;43.33
67517;BME280;68821;59.134;37.894;2023-06-04T08:57:50;99933.53;;;15.70;43.70
67517;BME280;68821;59.134;37.894;2023-06-04T09:00:19;99931.66;;;15.84;43.46
67517;BME280;68821;59.134;37.894;2023-06-04T09:02:49;99919.22;;;16.13;43.47
67517;BME280;68821;59.134;37.894;2023-06-04T09:05:21;99921.56;;;16.29;43.03
67517;BME280;68821;59.134;37.894;2023-06-04T09:07:47;99918.00;;;16.38;42.18
67517;BME280;68821;59.134;37.894;2023-06-04T09:10:15;99925.72;;;16.43;41.29
67517;BME280;68821;59.134;37.894;2023-06-04T09:12:46;99925.03;;;16.30;41.80
67517;BME280;68821;59.134;37.894;2023-06-04T09:15:13;99926.19;;;16.09;42.07
67517;BME280;68821;59.134;37.894;2023-06-04T09:17:39;99937.44;;;16.08;42.14
67517;BME280;68821;59.134;37.894;2023-06-04T09:20:05;99929.78;;;15.97;41.88
67517;BME280;68821;59.134;37.894;2023-06-04T09:22:36;99924.00;;;15.70;41.94
67517;BME280;68821;59.134;37.894;2023-06-04T09:25:06;99935.50;;;15.48;42.10
67517;BME280;68821;59.134;37.894;2023-06-04T09:27:39;99938.31;;;15.26;42.88
67517;BME280;68821;59.134;37.894;2023-06-04T09:30:06;99941.91;;;15.12;43.10
67517;BME280;68821;59.134;37.894;2023-06-04T09:32:34;99944.59;;;14.95;43.42
67517;BME280;68821;59.134;37.894;2023-06-04T09:35:19;99943.94;;;14.73;43.61
67517;BME280;68821;59.134;37.894;2023-06-04T09:37:55;99957.84;;;14.48;44.48
67517;BME280;68821;59.134;37.894;2023-06-04T09:40:22;99975.19;;;14.28;45.19
67517;BME280;68821;59.134;37.894;2023-06-04T09:42:50;100000.25;;;14.04;46.71
67517;BME280;68821;59.134;37.894;2023-06-04T09:45:29;100013.28;;;13.72;47.90
67517;BME280;68821;59.134;37.894;2023-06-04T09:47:55;100026.19;;;13.26;50.08
67517;BME280;68821;59.134;37.894;2023-06-04T09:50:32;100033.03;;;12.76;52.32
67517;BME280;68821;59.134;37.894;2023-06-04T09:53:18;100032.84;;;12.21;54.34
67517;BME280;68821;59.134;37.894;2023-06-04T09:55:56;100036.91;;;11.83;54.37
67517;BME280;68821;59.134;37.894;2023-06-04T09:58:26;100028.31;;;11.81;54.96
67517;BME280;68821;59.134;37.894;2023-06-04T10:00:56;100029.19;;;11.83;54.98
67517;BME280;68821;59.134;37.894;2023-06-04T10:03:34;100024.13;;;11.96;56.18
67517;BME280;68821;59.134;37.894;2023-06-04T10:06:05;100023.41;;;12.27;55.50
67517;BME280;68821;59.134;37.894;2023-06-04T10:08:32;100028.69;;;12.60;55.32
67517;BME280;68821;59.134;37.894;2023-06-04T10:11:01;100032.19;;;12.86;54.39
67517;BME280;68821;59.134;37.894;2023-06-04T10:13:37;100030.50;;;13.08;54.17
67517;BME280;68821;59.134;37.894;2023-06-04T10:16:04;100024.53;;;13.36;54.13
67517;BME280;68821;59.134;37.894;2023-06-04T10:18:32;100015.03;;;13.55;53.20
67517;BME280;68821;59.134;37.894;2023-06-04T10:20:59;100016.75;;;13.56;52.96
67517;BME280;68821;59.134;37.894;2023-06-04T10:23:25;100018.47;;;13.55;52.64
67517;BME280;68821;59.134;37.894;2023-06-04T10:25:52;100033.09;;;13.53;52.49
67517;BME280;68821;59.134;37.894;2023-06-04T10:28:20;100007.28;;;13.50;53.11
67517;BME280;68821;59.134;37.894;2023-06-04T10:30:48;100013.31;;;13.57;52.96
67517;BME280;68821;59.134;37.894;2023-06-04T10:33:18;100020.16;;;13.65;52.60
67517;BME280;68821;59.134;37.894;2023-06-04T10:35:46;100007.28;;;13.68;52.32
67517;BME280;68821;59.134;37.894;2023-06-04T10:38:13;100008.13;;;13.71;52.05
67517;BME280;68821;59.134;37.894;2023-06-04T10:40:42;100005.53;;;13.74;51.98
67517;BME280;68821;59.134;37.894;2023-06-04T10:43:11;99998.59;;;13.93;51.25
67517;BME280;68821;59.134;37.894;2023-06-04T10:45:38;100006.28;;;14.17;50.78
67517;BME280;68821;59.134;37.894;2023-06-04T10:48:09;100005.22;;;14.55;50.02
67517;BME280;68821;59.134;37.894;2023-06-04T10:51:02;100008.34;;;15.13;48.98
67517;BME280;68821;59.134;37.894;2023-06-04T10:53:36;100005.53;;;15.40;48.18
67517;BME280;68821;59.134;37.894;2023-06-04T10:56:02;100012.19;;;15.67;48.26
67517;BME280;68821;59.134;37.894;2023-06-04T10:58:35;99987.69;;;15.98;47.21
67517;BME280;68821;59.134;37.894;2023-06-04T11:01:01;100003.00;;;16.19;46.71
67517;BME280;68821;59.134;37.894;2023-06-04T11:03:37;99997.88;;;16.15;46.36
67517;BME280;68821;59.134;37.894;2023-06-04T11:06:15;99999.63;;;16.11;46.11
67517;BME280;68821;59.134;37.894;2023-06-04T11:08:42;100001.44;;;16.06;46.17
67517;BME280;68821;59.134;37.894;2023-06-04T11:11:13;99987.72;;;15.93;46.23
67517;BME280;68821;59.134;37.894;2023-06-04T11:13:40;99991.34;;;15.80;46.58
67517;BME280;68821;59.134;37.894;2023-06-04T11:16:19;99999.22;;;15.69;46.90
67517;BME280;68821;59.134;37.894;2023-06-04T11:18:58;99994.16;;;15.55;46.97
67517;BME280;68821;59.134;37.894;2023-06-04T11:21:28;99999.47;;;15.41;47.35
67517;BME280;68821;59.134;37.894;2023-06-04T11:23:57;100000.47;;;15.25;47.58
67517;BME280;68821;59.134;37.894;2023-06-04T11:26:32;99993.72;;;15.05;48.14
67517;BME280;68821;59.134;37.894;2023-06-04T11:28:59;99998.16;;;14.91;48.20
67517;BME280;68821;59.134;37.894;2023-06-04T11:31:25;99994.72;;;14.84;48.94
67517;BME280;68821;59.134;37.894;2023-06-04T11:33:51;99995.59;;;14.80;48.97
67517;BME280;68821;59.134;37.894;2023-06-04T11:36:28;100001.72;;;14.72;48.87
67517;BME280;68821;59.134;37.894;2023-06-04T11:38:56;100001.75;;;14.67;49.11
67517;BME280;68821;59.134;37.894;2023-06-04T11:41:27;100013.88;;;14.60;48.82
67517;BME280;68821;59.134;37.894;2023-06-04T11:43:56;100012.19;;;14.39;48.94
67517;BME280;68821;59.134;37.894;2023-06-04T11:46:22;100015.75;;;14.15;49.33
67517;BME280;68821;59.134;37.894;2023-06-04T11:48:52;100017.53;;;13.99;49.64
67517;BME280;68821;59.134;37.894;2023-06-04T11:51:21;100007.22;;;13.88;50.26
67517;BME280;68821;59.134;37.894;2023-06-04T11:53:47;100016.69;;;13.83;50.86
67517;BME280;68821;59.134;37.894;2023-06-04T11:56:14;100012.41;;;13.81;50.67
67517;BME280;68821;59.134;37.894;2023-06-04T11:58:41;100019.31;;;13.74;50.65
67517;BME280;68821;59.134;37.894;2023-06-04T12:01:08;100015.88;;;13.69;50.34
67517;BME280;68821;59.134;37.894;2023-06-04T12:03:44;100028.78;;;13.61;50.45
67517;BME280;68821;59.134;37.894;2023-06-04T12:06:18;100024.50;;;13.56;50.59
67517;BME280;68821;59.134;37.894;2023-06-04T12:08:55;100012.44;;;13.59;50.81
67517;BME280;68821;59.134;37.894;2023-06-04T12:11:32;100027.94;;;13.62;50.52
67517;BME280;68821;59.134;37.894;2023-06-04T12:14:04;100028.78;;;13.61;50.42
67517;BME280;68821;59.134;37.894;2023-06-04T12:16:31;100033.13;;;13.56;50.83
67517;BME280;68821;59.134;37.894;2023-06-04T12:19:24;100018.47;;;13.51;51.02
67517;BME280;68821;59.134;37.894;2023-06-04T12:21:59;100026.22;;;13.51;50.77
67517;BME280;68821;59.134;37.894;2023-06-04T12:24:29;100027.94;;;13.50;50.88
67517;BME280;68821;59.134;37.894;2023-06-04T12:27:05;100033.13;;;13.52;51.11
67517;BME280;68821;59.134;37.894;2023-06-04T12:29:33;100031.38;;;13.49;51.50
67517;BME280;68821;59.134;37.894;2023-06-04T12:32:07;100035.72;;;13.44;51.25
67517;BME280;68821;59.134;37.894;2023-06-04T12:34:37;100021.94;;;13.37;51.38
67517;BME280;68821;59.134;37.894;2023-06-04T12:37:04;100028.81;;;13.32;51.57
67517;BME280;68821;59.134;37.894;2023-06-04T12:39:32;100026.22;;;13.31;51.48
67517;BME280;68821;59.134;37.894;2023-06-04T12:41:59;100025.34;;;13.27;51.50
67517;BME280;68821;59.134;37.894;2023-06-04T12:44:25;100022.75;;;13.28;51.69
67517;BME280;68821;59.134;37.894;2023-06-04T12:46:51;100032.22;;;13.28;51.46
67517;BME280;68821;59.134;37.894;2023-06-04T12:49:18;100032.22;;;13.28;51.70
67517;BME280;68821;59.134;37.894;2023-06-04T12:51:44;100036.53;;;13.27;51.65
67517;BME280;68821;59.134;37.894;2023-06-04T12:54:10;100039.13;;;13.31;52.41
67517;BME280;68821;59.134;37.894;2023-06-04T12:56:37;100034.84;;;13.39;51.75
67517;BME280;68821;59.134;37.894;2023-06-04T12:59:03;100031.38;;;13.49;51.64
67517;BME280;68821;59.134;37.894;2023-06-04T13:01:29;100029.66;;;13.73;51.44